Terminal Aerodrome Forecast
Issued by NWS Huntsville, AL

Home | Current Version | Previous Version | Text Only | Print | Product List | Glossary On
Versions: 1 2 3 4 5 6 7 8 9 10 11 12 13 14 15 16 17 18 19 20 21 22 23 24 25 26 27 28 29 30 31 32 33 34 35 36 37 38 39
000
FTUS44 KHUN 012330
TAFHSV
TAF
KHSV 012330Z 0200/0224 14004KT P6SM SCT250
     FM020900 18005KT P6SM BKN050 BKN250
     FM021200 20008KT P6SM VCSH SCT025
     FM021700 20012G15KT P6SM VCSH SCT025 SCT250=

USA.gov is the U.S. government's official web portal to all federal, state and local government web resources and services.